sensor_id;sensor_type;location;lat;lon;timestamp;pressure;altitude;pressure_sealevel;temperature;humidity
71764;BME280;59602;52.142;5.408;2024-01-30T00:01:30;102717.28;;;7.13;100.00
71764;BME280;59602;52.142;5.408;2024-01-30T00:03:57;102713.28;;;7.10;100.00
71764;BME280;59602;52.142;5.408;2024-01-30T00:06:26;102712.31;;;7.06;100.00
71764;BME280;59602;52.142;5.408;2024-01-30T00:08:56;102720.41;;;7.06;100.00
71764;BME280;59602;52.142;5.408;2024-01-30T00:11:23;102712.09;;;7.02;100.00
71764;BME280;59602;52.142;5.408;2024-01-30T00:13:52;102714.31;;;7.00;100.00
71764;BME280;59602;52.142;5.408;2024-01-30T00:16:21;102715.75;;;6.98;100.00
71764;BME280;59602;52.142;5.408;2024-01-30T00:18:48;102719.25;;;6.98;100.00
71764;BME280;59602;52.142;5.408;2024-01-30T00:21:16;102716.03;;;6.96;100.00
71764;BME280;59602;52.142;5.408;2024-01-30T00:23:43;102711.44;;;6.97;100.00
71764;BME280;59602;52.142;5.408;2024-01-30T00:26:09;102717.94;;;6.96;100.00
71764;BME280;59602;52.142;5.408;2024-01-30T00:28:38;102712.84;;;6.94;100.00
71764;BME280;59602;52.142;5.408;2024-01-30T00:31:05;102715.09;;;6.92;100.00
71764;BME280;59602;52.142;5.408;2024-01-30T00:33:31;102714.75;;;6.94;100.00
71764;BME280;59602;52.142;5.408;2024-01-30T00:35:58;102714.94;;;6.97;100.00
71764;BME280;59602;52.142;5.408;2024-01-30T00:38:25;102711.56;;;6.92;100.00
71764;BME280;59602;52.142;5.408;2024-01-30T00:40:52;102709.97;;;6.91;100.00
71764;BME280;59602;52.142;5.408;2024-01-30T00:43:21;102706.78;;;6.89;100.00
71764;BME280;59602;52.142;5.408;2024-01-30T00:45:48;102703.44;;;6.92;100.00
71764;BME280;59602;52.142;5.408;2024-01-30T00:48:21;102705.06;;;6.93;100.00
71764;BME280;59602;52.142;5.408;2024-01-30T00:50:57;102703.16;;;6.93;100.00
71764;BME280;59602;52.142;5.408;2024-01-30T00:53:24;102706.16;;;6.92;100.00
71764;BME280;59602;52.142;5.408;2024-01-30T00:55:50;102706.28;;;6.86;100.00
71764;BME280;59602;52.142;5.408;2024-01-30T00:58:26;102708.97;;;6.86;100.00
71764;BME280;59602;52.142;5.408;2024-01-30T01:01:06;102706.09;;;6.83;100.00
71764;BME280;59602;52.142;5.408;2024-01-30T01:03:34;102702.88;;;6.81;100.00
71764;BME280;59602;52.142;5.408;2024-01-30T01:06:01;102705.91;;;6.79;100.00
71764;BME280;59602;52.142;5.408;2024-01-30T01:08:27;102699.72;;;6.79;100.00
71764;BME280;59602;52.142;5.408;2024-01-30T01:10:54;102704.31;;;6.78;100.00
71764;BME280;59602;52.142;5.408;2024-01-30T01:13:21;102700.00;;;6.77;100.00
71764;BME280;59602;52.142;5.408;2024-01-30T01:15:47;102701.44;;;6.75;100.00
71764;BME280;59602;52.142;5.408;2024-01-30T01:18:14;102693.41;;;6.70;100.00
71764;BME280;59602;52.142;5.408;2024-01-30T01:20:43;102692.13;;;6.67;100.00
71764;BME280;59602;52.142;5.408;2024-01-30T01:23:09;102686.22;;;6.65;100.00
71764;BME280;59602;52.142;5.408;2024-01-30T01:25:36;102684.66;;;6.64;100.00
71764;BME280;59602;52.142;5.408;2024-01-30T01:28:05;102677.03;;;6.66;100.00
71764;BME280;59602;52.142;5.408;2024-01-30T01:30:32;102665.59;;;6.69;100.00
71764;BME280;59602;52.142;5.408;2024-01-30T01:33:07;102670.22;;;6.69;100.00
71764;BME280;59602;52.142;5.408;2024-01-30T01:35:35;102672.13;;;6.68;100.00
71764;BME280;59602;52.142;5.408;2024-01-30T01:38:14;102675.63;;;6.69;100.00
71764;BME280;59602;52.142;5.408;2024-01-30T01:40:41;102667.00;;;6.67;100.00
71764;BME280;59602;52.142;5.408;2024-01-30T01:43:07;102672.91;;;6.69;100.00
71764;BME280;59602;52.142;5.408;2024-01-30T01:45:34;102670.22;;;6.69;100.00
71764;BME280;59602;52.142;5.408;2024-01-30T01:48:03;102676.13;;;6.71;100.00
71764;BME280;59602;52.142;5.408;2024-01-30T01:50:55;102682.94;;;6.68;100.00
71764;BME280;59602;52.142;5.408;2024-01-30T01:53:23;102680.09;;;6.73;100.00
71764;BME280;59602;52.142;5.408;2024-01-30T01:55:50;102668.66;;;6.76;100.00
71764;BME280;59602;52.142;5.408;2024-01-30T01:58:22;102673.78;;;6.78;100.00
71764;BME280;59602;52.142;5.408;2024-01-30T02:00:53;102671.88;;;6.78;100.00
71764;BME280;59602;52.142;5.408;2024-01-30T02:03:35;102672.19;;;6.77;100.00
71764;BME280;59602;52.142;5.408;2024-01-30T02:06:02;102672.97;;;6.77;100.00
71764;BME280;59602;52.142;5.408;2024-01-30T02:08:29;102666.59;;;6.73;100.00
71764;BME280;59602;52.142;5.408;2024-01-30T02:10:59;102667.38;;;6.74;100.00
71764;BME280;59602;52.142;5.408;2024-01-30T02:13:26;102660.88;;;6.75;100.00
71764;BME280;59602;52.142;5.408;2024-01-30T02:15:53;102666.59;;;6.73;100.00
71764;BME280;59602;52.142;5.408;2024-01-30T02:18:20;102662.59;;;6.71;100.00
71764;BME280;59602;52.142;5.408;2024-01-30T02:21:05;102668.31;;;6.69;100.00
71764;BME280;59602;52.142;5.408;2024-01-30T02:23:41;102665.94;;;6.68;100.00
71764;BME280;59602;52.142;5.408;2024-01-30T02:26:09;102657.31;;;6.65;100.00
71764;BME280;59602;52.142;5.408;2024-01-30T02:28:36;102663.31;;;6.62;100.00
71764;BME280;59602;52.142;5.408;2024-01-30T02:31:03;102675.75;;;6.63;100.00
71764;BME280;59602;52.142;5.408;2024-01-30T02:33:29;102675.41;;;6.65;100.00
71764;BME280;59602;52.142;5.408;2024-01-30T02:35:59;102673.53;;;6.65;100.00
71764;BME280;59602;52.142;5.408;2024-01-30T02:38:26;102675.25;;;6.61;100.00
71764;BME280;59602;52.142;5.408;2024-01-30T02:40:53;102672.72;;;6.65;100.00
71764;BME280;59602;52.142;5.408;2024-01-30T02:43:20;102667.22;;;6.70;100.00
71764;BME280;59602;52.142;5.408;2024-01-30T02:45:46;102673.91;;;6.73;100.00
71764;BME280;59602;52.142;5.408;2024-01-30T02:48:13;102669.09;;;6.70;100.00
71764;BME280;59602;52.142;5.408;2024-01-30T02:50:40;102661.47;;;6.72;100.00
71764;BME280;59602;52.142;5.408;2024-01-30T02:53:13;102655.78;;;6.73;100.00
71764;BME280;59602;52.142;5.408;2024-01-30T02:55:40;102644.97;;;6.73;100.00
71764;BME280;59602;52.142;5.408;2024-01-30T02:58:07;102653.56;;;6.75;100.00
71764;BME280;59602;52.142;5.408;2024-01-30T03:00:34;102648.16;;;6.75;100.00
71764;BME280;59602;52.142;5.408;2024-01-30T03:03:01;102648.47;;;6.74;100.00
71764;BME280;59602;52.142;5.408;2024-01-30T03:05:28;102644.47;;;6.71;100.00
71764;BME280;59602;52.142;5.408;2024-01-30T03:07:55;102634.44;;;6.72;100.00
71764;BME280;59602;52.142;5.408;2024-01-30T03:10:21;102638.47;;;6.74;100.00
71764;BME280;59602;52.142;5.408;2024-01-30T03:12:48;102639.56;;;6.73;100.00
71764;BME280;59602;52.142;5.408;2024-01-30T03:15:15;102633.06;;;6.74;100.00
71764;BME280;59602;52.142;5.408;2024-01-30T03:17:41;102626.84;;;6.74;100.00
71764;BME280;59602;52.142;5.408;2024-01-30T03:20:08;102628.44;;;6.75;100.00
71764;BME280;59602;52.142;5.408;2024-01-30T03:22:37;102615.72;;;6.75;100.00
71764;BME280;59602;52.142;5.408;2024-01-30T03:25:04;102621.63;;;6.77;100.00
71764;BME280;59602;52.142;5.408;2024-01-30T03:27:31;102612.88;;;6.80;100.00
71764;BME280;59602;52.142;5.408;2024-01-30T03:29:57;102624.19;;;6.82;100.00
71764;BME280;59602;52.142;5.408;2024-01-30T03:32:24;102624.97;;;6.83;100.00
71764;BME280;59602;52.142;5.408;2024-01-30T03:34:54;102623.88;;;6.84;100.00
71764;BME280;59602;52.142;5.408;2024-01-30T03:37:20;102620.38;;;6.83;100.00
71764;BME280;59602;52.142;5.408;2024-01-30T03:39:48;102621.34;;;6.88;100.00
71764;BME280;59602;52.142;5.408;2024-01-30T03:42:46;102612.00;;;6.94;100.00
71764;BME280;59602;52.142;5.408;2024-01-30T03:45:14;102605.16;;;6.96;100.00
71764;BME280;59602;52.142;5.408;2024-01-30T03:47:43;102602.94;;;6.98;100.00
71764;BME280;59602;52.142;5.408;2024-01-30T03:50:12;102600.44;;;7.02;100.00
71764;BME280;59602;52.142;5.408;2024-01-30T03:52:39;102593.59;;;7.04;100.00
71764;BME280;59602;52.142;5.408;2024-01-30T03:55:07;102585.50;;;7.04;100.00
71764;BME280;59602;52.142;5.408;2024-01-30T03:57:34;102595.66;;;7.07;100.00
71764;BME280;59602;52.142;5.408;2024-01-30T04:00:03;102595.06;;;7.11;100.00
71764;BME280;59602;52.142;5.408;2024-01-30T04:02:31;102598.56;;;7.11;100.00
71764;BME280;59602;52.142;5.408;2024-01-30T04:04:58;102607.97;;;7.14;100.00
71764;BME280;59602;52.142;5.408;2024-01-30T04:07:27;102602.72;;;7.17;100.00
71764;BME280;59602;52.142;5.408;2024-01-30T04:09:55;102611.00;;;7.21;100.00
71764;BME280;59602;52.142;5.408;2024-01-30T04:12:22;102601.16;;;7.25;100.00
71764;BME280;59602;52.142;5.408;2024-01-30T04:14:49;102609.16;;;7.30;100.00
71764;BME280;59602;52.142;5.408;2024-01-30T04:17:15;102622.84;;;7.34;100.00
71764;BME280;59602;52.142;5.408;2024-01-30T04:19:42;102612.81;;;7.34;100.00
71764;BME280;59602;52.142;5.408;2024-01-30T04:22:11;102617.91;;;7.36;100.00
71764;BME280;59602;52.142;5.408;2024-01-30T04:24:38;102613.00;;;7.38;100.00
71764;BME280;59602;52.142;5.408;2024-01-30T04:27:07;102599.63;;;7.41;100.00
71764;BME280;59602;52.142;5.408;2024-01-30T04:29:34;102595.81;;;7.42;100.00
71764;BME280;59602;52.142;5.408;2024-01-30T04:32:01;102594.69;;;7.43;100.00
71764;BME280;59602;52.142;5.408;2024-01-30T04:34:27;102584.34;;;7.45;100.00
71764;BME280;59602;52.142;5.408;2024-01-30T04:36:54;102584.34;;;7.45;100.00
71764;BME280;59602;52.142;5.408;2024-01-30T04:39:27;102578.63;;;7.47;100.00
71764;BME280;59602;52.142;5.408;2024-01-30T04:42:00;102588.34;;;7.48;100.00
71764;BME280;59602;52.142;5.408;2024-01-30T04:44:27;102577.97;;;7.50;100.00
71764;BME280;59602;52.142;5.408;2024-01-30T04:46:54;102570.84;;;7.54;100.00
71764;BME280;59602;52.142;5.408;2024-01-30T04:49:23;102562.72;;;7.54;100.00
71764;BME280;59602;52.142;5.408;2024-01-30T04:51:50;102572.75;;;7.54;100.00
71764;BME280;59602;52.142;5.408;2024-01-30T04:54:17;102575.94;;;7.56;100.00
71764;BME280;59602;52.142;5.408;2024-01-30T04:56:44;102575.16;;;7.55;100.00
71764;BME280;59602;52.142;5.408;2024-01-30T04:59:11;102572.09;;;7.57;100.00
71764;BME280;59602;52.142;5.408;2024-01-30T05:01:38;102585.97;;;7.55;100.00
71764;BME280;59602;52.142;5.408;2024-01-30T05:04:08;102582.94;;;7.57;100.00
71764;BME280;59602;52.142;5.408;2024-01-30T05:06:38;102579.13;;;7.58;100.00
71764;BME280;59602;52.142;5.408;2024-01-30T05:09:04;102575.28;;;7.59;100.00
71764;BME280;59602;52.142;5.408;2024-01-30T05:11:32;102580.88;;;7.62;100.00
71764;BME280;59602;52.142;5.408;2024-01-30T05:14:06;102583.28;;;7.64;100.00
71764;BME280;59602;52.142;5.408;2024-01-30T05:16:34;102570.53;;;7.64;100.00
71764;BME280;59602;52.142;5.408;2024-01-30T05:19:01;102581.06;;;7.66;100.00
71764;BME280;59602;52.142;5.408;2024-01-30T05:21:44;102579.28;;;7.70;100.00
71764;BME280;59602;52.142;5.408;2024-01-30T05:24:20;102574.53;;;7.76;100.00
71764;BME280;59602;52.142;5.408;2024-01-30T05:26:49;102568.81;;;7.77;100.00
71764;BME280;59602;52.142;5.408;2024-01-30T05:29:17;102565.47;;;7.80;100.00
71764;BME280;59602;52.142;5.408;2024-01-30T05:31:46;102555.13;;;7.82;100.00
71764;BME280;59602;52.142;5.408;2024-01-30T05:34:13;102547.47;;;7.84;100.00
71764;BME280;59602;52.142;5.408;2024-01-30T05:36:40;102546.03;;;7.87;100.00
71764;BME280;59602;52.142;5.408;2024-01-30T05:39:06;102548.75;;;7.87;100.00
71764;BME280;59602;52.142;5.408;2024-01-30T05:41:34;102560.06;;;7.89;100.00
71764;BME280;59602;52.142;5.408;2024-01-30T05:44:01;102565.97;;;7.91;100.00
71764;BME280;59602;52.142;5.408;2024-01-30T05:46:28;102576.94;;;7.95;100.00
71764;BME280;59602;52.142;5.408;2024-01-30T05:48:55;102576.31;;;7.98;100.00
71764;BME280;59602;52.142;5.408;2024-01-30T05:51:27;102563.72;;;8.02;100.00
71764;BME280;59602;52.142;5.408;2024-01-30T05:53:54;102562.91;;;8.01;100.00
71764;BME280;59602;52.142;5.408;2024-01-30T05:56:21;102562.28;;;8.04;100.00
71764;BME280;59602;52.142;5.408;2024-01-30T05:59:08;102573.13;;;8.04;100.00
71764;BME280;59602;52.142;5.408;2024-01-30T06:01:35;102574.72;;;8.05;100.00
71764;BME280;59602;52.142;5.408;2024-01-30T06:04:05;102578.22;;;8.06;100.00
71764;BME280;59602;52.142;5.408;2024-01-30T06:06:33;102579.34;;;8.05;100.00
71764;BME280;59602;52.142;5.408;2024-01-30T06:09:00;102575.19;;;8.07;100.00
71764;BME280;59602;52.142;5.408;2024-01-30T06:11:33;102579.50;;;8.08;100.00
71764;BME280;59602;52.142;5.408;2024-01-30T06:14:02;102581.88;;;8.10;100.00
71764;BME280;59602;52.142;5.408;2024-01-30T06:16:29;102570.72;;;8.11;100.00
71764;BME280;59602;52.142;5.408;2024-01-30T06:19:03;102566.88;;;8.13;100.00
71764;BME280;59602;52.142;5.408;2024-01-30T06:21:30;102576.16;;;8.11;100.00
71764;BME280;59602;52.142;5.408;2024-01-30T06:24:01;102569.59;;;8.13;100.00
71764;BME280;59602;52.142;5.408;2024-01-30T06:26:28;102565.78;;;8.14;100.00
71764;BME280;59602;52.142;5.408;2024-01-30T06:28:54;102556.53;;;8.15;100.00
71764;BME280;59602;52.142;5.408;2024-01-30T06:31:21;102570.25;;;8.18;100.00
71764;BME280;59602;52.142;5.408;2024-01-30T06:33:49;102577.25;;;8.19;100.00
71764;BME280;59602;52.142;5.408;2024-01-30T06:36:16;102579.97;;;8.19;100.00
71764;BME280;59602;52.142;5.408;2024-01-30T06:38:43;102575.84;;;8.22;100.00
71764;BME280;59602;52.142;5.408;2024-01-30T06:41:10;102586.34;;;8.23;100.00
71764;BME280;59602;52.142;5.408;2024-01-30T06:43:37;102583.63;;;8.23;100.00
71764;BME280;59602;52.142;5.408;2024-01-30T06:46:04;102591.91;;;8.27;100.00
71764;BME280;59602;52.142;5.408;2024-01-30T06:48:30;102584.28;;;8.29;100.00
71764;BME280;59602;52.142;5.408;2024-01-30T06:51:02;102590.47;;;8.29;100.00
71764;BME280;59602;52.142;5.408;2024-01-30T06:53:31;102595.59;;;8.31;100.00
71764;BME280;59602;52.142;5.408;2024-01-30T06:56:00;102594.81;;;8.30;100.00
71764;BME280;59602;52.142;5.408;2024-01-30T06:58:36;102589.69;;;8.29;100.00
71764;BME280;59602;52.142;5.408;2024-01-30T07:01:06;102597.81;;;8.29;100.00
71764;BME280;59602;52.142;5.408;2024-01-30T07:11:02;102591.91;;;8.36;100.00
71764;BME280;59602;52.142;5.408;2024-01-30T07:13:29;102585.84;;;8.39;100.00
71764;BME280;59602;52.142;5.408;2024-01-30T07:15:58;102590.00;;;8.36;100.00
71764;BME280;59602;52.142;5.408;2024-01-30T07:19:02;102601.97;;;8.35;100.00
71764;BME280;59602;52.142;5.408;2024-01-30T07:21:30;102604.34;;;8.37;100.00
71764;BME280;59602;52.142;5.408;2024-01-30T07:24:01;102585.84;;;8.39;100.00
71764;BME280;59602;52.142;5.408;2024-01-30T07:26:44;102609.44;;;8.38;100.00
71764;BME280;59602;52.142;5.408;2024-01-30T07:29:16;102599.41;;;8.39;100.00
71764;BME280;59602;52.142;5.408;2024-01-30T07:31:43;102611.03;;;8.39;100.00
71764;BME280;59602;52.142;5.408;2024-01-30T07:34:11;102612.34;;;8.42;100.00
71764;BME280;59602;52.142;5.408;2024-01-30T07:36:41;102614.25;;;8.41;100.00
71764;BME280;59602;52.142;5.408;2024-01-30T07:39:28;102620.16;;;8.43;100.00
71764;BME280;59602;52.142;5.408;2024-01-30T07:41:55;102627.19;;;8.44;100.00
71764;BME280;59602;52.142;5.408;2024-01-30T07:44:22;102624.94;;;8.46;100.00
71764;BME280;59602;52.142;5.408;2024-01-30T07:47:05;102618.09;;;8.49;100.00
71764;BME280;59602;52.142;5.408;2024-01-30T07:49:39;102621.41;;;8.55;100.00
71764;BME280;59602;52.142;5.408;2024-01-30T07:52:06;102623.34;;;8.54;100.00
71764;BME280;59602;52.142;5.408;2024-01-30T07:54:47;102632.72;;;8.57;100.00
71764;BME280;59602;52.142;5.408;2024-01-30T07:57:17;102623.50;;;8.58;100.00
71764;BME280;59602;52.142;5.408;2024-01-30T07:59:45;102630.19;;;8.60;100.00
71764;BME280;59602;52.142;5.408;2024-01-30T08:02:15;102645.81;;;8.63;100.00
71764;BME280;59602;52.142;5.408;2024-01-30T08:04:44;102637.34;;;8.65;100.00
71764;BME280;59602;52.142;5.408;2024-01-30T08:07:15;102640.53;;;8.67;100.00
71764;BME280;59602;52.142;5.408;2024-01-30T08:09:44;102639.91;;;8.70;100.00
71764;BME280;59602;52.142;5.408;2024-01-30T08:12:10;102631.13;;;8.73;100.00
71764;BME280;59602;52.142;5.408;2024-01-30T08:14:38;102634.78;;;8.77;100.00
71764;BME280;59602;52.142;5.408;2024-01-30T08:17:07;102637.66;;;8.81;100.00
71764;BME280;59602;52.142;5.408;2024-01-30T08:19:34;102639.69;;;8.84;100.00
71764;BME280;59602;52.142;5.408;2024-01-30T08:22:09;102626.78;;;8.89;100.00
71764;BME280;59602;52.142;5.408;2024-01-30T08:24:42;102636.66;;;8.94;100.00
71764;BME280;59602;52.142;5.408;2024-01-30T08:27:09;102637.59;;;8.98;100.00
71764;BME280;59602;52.142;5.408;2024-01-30T08:29:36;102635.38;;;9.00;100.00
71764;BME280;59602;52.142;5.408;2024-01-30T08:32:06;102643.63;;;9.04;100.00
71764;BME280;59602;52.142;5.408;2024-01-30T08:34:35;102639.47;;;9.06;100.00
71764;BME280;59602;52.142;5.408;2024-01-30T08:37:17;102641.56;;;9.09;100.00
71764;BME280;59602;52.142;5.408;2024-01-30T08:39:47;102632.75;;;9.12;100.00
71764;BME280;59602;52.142;5.408;2024-01-30T08:42:14;102627.19;;;9.18;100.00
71764;BME280;59602;52.142;5.408;2024-01-30T08:44:41;102634.00;;;9.24;100.00
71764;BME280;59602;52.142;5.408;2024-01-30T08:47:12;102620.56;;;9.27;100.00
71764;BME280;59602;52.142;5.408;2024-01-30T08:49:41;102641.78;;;9.34;100.00
71764;BME280;59602;52.142;5.408;2024-01-30T08:52:25;102627.56;;;9.37;100.00
71764;BME280;59602;52.142;5.408;2024-01-30T08:54:55;102625.00;;;9.41;100.00
71764;BME280;59602;52.142;5.408;2024-01-30T08:57:31;102633.72;;;9.46;100.00
71764;BME280;59602;52.142;5.408;2024-01-30T08:59:57;102644.91;;;9.53;100.00
71764;BME280;59602;52.142;5.408;2024-01-30T09:02:33;102641.19;;;9.58;100.00
71764;BME280;59602;52.142;5.408;2024-01-30T09:05:00;102638.75;;;9.65;100.00
71764;BME280;59602;52.142;5.408;2024-01-30T09:07:39;102638.72;;;9.74;100.00
71764;BME280;59602;52.142;5.408;2024-01-30T09:10:11;102637.19;;;9.85;100.00
71764;BME280;59602;52.142;5.408;2024-01-30T09:12:40;102642.69;;;9.97;100.00
71764;BME280;59602;52.142;5.408;2024-01-30T09:15:09;102645.69;;;10.05;100.00
71764;BME280;59602;52.142;5.408;2024-01-30T09:17:37;102644.03;;;10.12;100.00
71764;BME280;59602;52.142;5.408;2024-01-30T09:20:05;102649.41;;;10.21;100.00
71764;BME280;59602;52.142;5.408;2024-01-30T09:22:32;102651.91;;;10.26;100.00
71764;BME280;59602;52.142;5.408;2024-01-30T09:25:02;102651.59;;;10.28;100.00
71764;BME280;59602;52.142;5.408;2024-01-30T09:28:10;102656.38;;;10.31;100.00
71764;BME280;59602;52.142;5.408;2024-01-30T09:30:40;102663.75;;;10.30;100.00
71764;BME280;59602;52.142;5.408;2024-01-30T09:33:47;102659.72;;;10.36;100.00
71764;BME280;59602;52.142;5.408;2024-01-30T09:36:18;102651.88;;;10.35;100.00
71764;BME280;59602;52.142;5.408;2024-01-30T09:38:50;102662.28;;;10.33;100.00
71764;BME280;59602;52.142;5.408;2024-01-30T09:41:48;102669.78;;;10.36;100.00
71764;BME280;59602;52.142;5.408;2024-01-30T09:44:20;102666.25;;;10.35;100.00
71764;BME280;59602;52.142;5.408;2024-01-30T09:46:47;102671.06;;;10.38;100.00
71764;BME280;59602;52.142;5.408;2024-01-30T09:49:17;102674.56;;;10.39;100.00
71764;BME280;59602;52.142;5.408;2024-01-30T09:51:50;102678.53;;;10.42;100.00
71764;BME280;59602;52.142;5.408;2024-01-30T09:54:44;102683.66;;;10.43;100.00
71764;BME280;59602;52.142;5.408;2024-01-30T09:57:13;102675.97;;;10.45;100.00
71764;BME280;59602;52.142;5.408;2024-01-30T10:00:04;102681.19;;;10.50;100.00
71764;BME280;59602;52.142;5.408;2024-01-30T10:02:35;102689.03;;;10.52;100.00
71764;BME280;59602;52.142;5.408;2024-01-30T10:05:02;102687.88;;;10.53;100.00
71764;BME280;59602;52.142;5.408;2024-01-30T10:07:32;102684.47;;;10.56;100.00
71764;BME280;59602;52.142;5.408;2024-01-30T10:10:26;102682.56;;;10.56;100.00
71764;BME280;59602;52.142;5.408;2024-01-30T10:12:56;102680.31;;;10.58;100.00
71764;BME280;59602;52.142;5.408;2024-01-30T10:15:27;102683.50;;;10.61;100.00
71764;BME280;59602;52.142;5.408;2024-01-30T10:17:54;102682.69;;;10.60;100.00
71764;BME280;59602;52.142;5.408;2024-01-30T10:20:30;102689.06;;;10.64;100.00
71764;BME280;59602;52.142;5.408;2024-01-30T10:22:57;102689.78;;;10.73;100.00
71764;BME280;59602;52.142;5.408;2024-01-30T10:25:47;102677.41;;;10.76;100.00
71764;BME280;59602;52.142;5.408;2024-01-30T10:28:17;102674.50;;;10.81;100.00
71764;BME280;59602;52.142;5.408;2024-01-30T10:30:59;102682.91;;;10.88;100.00
71764;BME280;59602;52.142;5.408;2024-01-30T10:33:54;102687.81;;;10.95;100.00
71764;BME280;59602;52.142;5.408;2024-01-30T10:36:59;102697.00;;;11.02;100.00
71764;BME280;59602;52.142;5.408;2024-01-30T10:39:31;102690.13;;;11.05;100.00
71764;BME280;59602;52.142;5.408;2024-01-30T10:42:26;102670.03;;;11.10;100.00
71764;BME280;59602;52.142;5.408;2024-01-30T10:45:07;102677.84;;;11.11;100.00
71764;BME280;59602;52.142;5.408;2024-01-30T10:47:40;102685.56;;;11.09;100.00
71764;BME280;59602;52.142;5.408;2024-01-30T10:50:11;102694.97;;;11.12;100.00
71764;BME280;59602;52.142;5.408;2024-01-30T10:53:39;102691.00;;;11.09;100.00
71764;BME280;59602;52.142;5.408;2024-01-30T10:56:10;102696.81;;;11.08;100.00
71764;BME280;59602;52.142;5.408;2024-01-30T10:58:42;102683.31;;;11.11;100.00
71764;BME280;59602;52.142;5.408;2024-01-30T11:01:11;102692.16;;;11.20;100.00
71764;BME280;59602;52.142;5.408;2024-01-30T11:03:41;102689.25;;;11.26;100.00
71764;BME280;59602;52.142;5.408;2024-01-30T11:06:14;102682.00;;;11.30;100.00
71764;BME280;59602;52.142;5.408;2024-01-30T11:12:48;102709.78;;;11.35;100.00
71764;BME280;59602;52.142;5.408;2024-01-30T11:15:21;102696.16;;;11.35;100.00
71764;BME280;59602;52.142;5.408;2024-01-30T11:18:00;102710.00;;;11.42;100.00
71764;BME280;59602;52.142;5.408;2024-01-30T11:20:30;102704.13;;;11.53;100.00
71764;BME280;59602;52.142;5.408;2024-01-30T11:26:56;102702.09;;;11.62;100.00
71764;BME280;59602;52.142;5.408;2024-01-30T11:29:50;102711.75;;;11.59;100.00
71764;BME280;59602;52.142;5.408;2024-01-30T11:32:25;102720.25;;;11.58;100.00
71764;BME280;59602;52.142;5.408;2024-01-30T11:34:55;102712.97;;;11.50;100.00
71764;BME280;59602;52.142;5.408;2024-01-30T11:37:25;102721.69;;;11.43;98.63
71764;BME280;59602;52.142;5.408;2024-01-30T11:40:11;102741.69;;;11.35;97.91
71764;BME280;59602;52.142;5.408;2024-01-30T11:42:39;102731.44;;;11.32;97.90
71764;BME280;59602;52.142;5.408;2024-01-30T11:45:06;102742.22;;;11.28;98.02
71764;BME280;59602;52.142;5.408;2024-01-30T11:47:35;102732.53;;;11.18;97.76
71764;BME280;59602;52.142;5.408;2024-01-30T11:50:04;102735.50;;;11.13;97.75
71764;BME280;59602;52.142;5.408;2024-01-30T11:52:33;102736.63;;;11.12;97.65
71764;BME280;59602;52.142;5.408;2024-01-30T11:55:00;102736.63;;;11.12;97.60
71764;BME280;59602;52.142;5.408;2024-01-30T11:57:27;102743.19;;;11.11;97.51
71764;BME280;59602;52.142;5.408;2024-01-30T11:59:54;102741.03;;;11.05;96.79
71764;BME280;59602;52.142;5.408;2024-01-30T12:02:24;102738.06;;;10.97;97.33
71764;BME280;59602;52.142;5.408;2024-01-30T12:04:50;102741.25;;;10.99;96.87
71764;BME280;59602;52.142;5.408;2024-01-30T12:07:17;102735.13;;;11.02;97.12
71764;BME280;59602;52.142;5.408;2024-01-30T12:09:53;102743.75;;;11.05;97.40
71764;BME280;59602;52.142;5.408;2024-01-30T12:12:23;102730.47;;;11.03;96.44
71764;BME280;59602;52.142;5.408;2024-01-30T12:14:50;102746.91;;;10.94;95.50
71764;BME280;59602;52.142;5.408;2024-01-30T12:17:28;102749.47;;;10.91;96.03
71764;BME280;59602;52.142;5.408;2024-01-30T12:20:06;102745.50;;;10.88;95.87
71764;BME280;59602;52.142;5.408;2024-01-30T12:22:38;102748.63;;;10.78;94.94
71764;BME280;59602;52.142;5.408;2024-01-30T12:25:08;102764.38;;;10.72;94.89
71764;BME280;59602;52.142;5.408;2024-01-30T12:27:36;102779.28;;;10.66;95.47
71764;BME280;59602;52.142;5.408;2024-01-30T12:30:07;102784.47;;;10.59;95.28
71764;BME280;59602;52.142;5.408;2024-01-30T12:32:35;102792.22;;;10.48;96.50
71764;BME280;59602;52.142;5.408;2024-01-30T12:35:07;102794.69;;;10.41;97.13
71764;BME280;59602;52.142;5.408;2024-01-30T12:37:34;102820.47;;;10.35;97.25
71764;BME280;59602;52.142;5.408;2024-01-30T12:40:01;102793.97;;;10.23;97.08
71764;BME280;59602;52.142;5.408;2024-01-30T12:42:29;102793.16;;;10.23;98.03
71764;BME280;59602;52.142;5.408;2024-01-30T12:44:58;102784.34;;;10.26;97.46
71764;BME280;59602;52.142;5.408;2024-01-30T12:47:26;102794.56;;;10.29;97.34
71764;BME280;59602;52.142;5.408;2024-01-30T12:49:52;102801.63;;;10.30;96.69
71764;BME280;59602;52.142;5.408;2024-01-30T12:52:21;102796.78;;;10.27;96.31
71764;BME280;59602;52.142;5.408;2024-01-30T12:54:49;102799.03;;;10.25;96.72
71764;BME280;59602;52.142;5.408;2024-01-30T12:57:16;102799.50;;;10.27;96.56
71764;BME280;59602;52.142;5.408;2024-01-30T12:59:43;102796.31;;;10.25;95.91
71764;BME280;59602;52.142;5.408;2024-01-30T13:02:19;102795.06;;;10.22;96.38
71764;BME280;59602;52.142;5.408;2024-01-30T13:05:20;102797.94;;;10.26;96.36
71764;BME280;59602;52.142;5.408;2024-01-30T13:07:47;102802.91;;;10.24;96.17
71764;BME280;59602;52.142;5.408;2024-01-30T13:10:14;102794.44;;;10.25;96.31
71764;BME280;59602;52.142;5.408;2024-01-30T13:12:41;102787.06;;;10.26;95.54
71764;BME280;59602;52.142;5.408;2024-01-30T13:15:08;102788.16;;;10.25;96.32
71764;BME280;59602;52.142;5.408;2024-01-30T13:17:35;102793.16;;;10.23;96.24
71764;BME280;59602;52.142;5.408;2024-01-30T13:20:02;102786.59;;;10.24;96.42
71764;BME280;59602;52.142;5.408;2024-01-30T13:22:37;102790.44;;;10.23;96.47